sensor_id;sensor_type;location;lat;lon;timestamp;P1;durP1;ratioP1;P2;durP2;ratioP2
325;SDS011;150;52.352;14.058;2023-05-20T00:00:56;3.63;;;2.83;;
325;SDS011;150;52.352;14.058;2023-05-20T00:03:23;5.33;;;2.70;;
325;SDS011;150;52.352;14.058;2023-05-20T00:05:53;4.13;;;2.60;;
325;SDS011;150;52.352;14.058;2023-05-20T00:08:21;4.82;;;2.70;;
325;SDS011;150;52.352;14.058;2023-05-20T00:10:48;4.85;;;2.97;;
325;SDS011;150;52.352;14.058;2023-05-20T00:13:16;4.47;;;2.70;;
325;SDS011;150;52.352;14.058;2023-05-20T00:15:43;5.63;;;2.10;;
325;SDS011;150;52.352;14.058;2023-05-20T00:18:09;3.53;;;2.38;;
325;SDS011;150;52.352;14.058;2023-05-20T00:20:40;3.42;;;2.60;;
325;SDS011;150;52.352;14.058;2023-05-20T00:23:07;4.03;;;2.30;;
325;SDS011;150;52.352;14.058;2023-05-20T00:25:34;4.27;;;2.37;;
325;SDS011;150;52.352;14.058;2023-05-20T00:28:00;4.25;;;2.53;;
325;SDS011;150;52.352;14.058;2023-05-20T00:30:28;4.97;;;2.80;;
325;SDS011;150;52.352;14.058;2023-05-20T00:32:58;3.00;;;2.17;;
325;SDS011;150;52.352;14.058;2023-05-20T00:35:24;3.60;;;2.60;;
325;SDS011;150;52.352;14.058;2023-05-20T00:37:51;6.40;;;3.00;;
325;SDS011;150;52.352;14.058;2023-05-20T00:40:18;4.18;;;2.72;;
325;SDS011;150;52.352;14.058;2023-05-20T00:42:45;5.90;;;2.70;;
325;SDS011;150;52.352;14.058;2023-05-20T00:45:12;4.23;;;2.77;;
325;SDS011;150;52.352;14.058;2023-05-20T00:47:43;3.50;;;2.33;;
325;SDS011;150;52.352;14.058;2023-05-20T00:50:10;2.78;;;2.13;;
325;SDS011;150;52.352;14.058;2023-05-20T00:55:23;3.33;;;2.30;;
325;SDS011;150;52.352;14.058;2023-05-20T00:58:01;3.53;;;2.70;;
325;SDS011;150;52.352;14.058;2023-05-20T01:00:28;3.40;;;2.40;;
325;SDS011;150;52.352;14.058;2023-05-20T01:02:56;4.63;;;2.67;;
325;SDS011;150;52.352;14.058;2023-05-20T01:05:23;3.22;;;2.30;;
325;SDS011;150;52.352;14.058;2023-05-20T01:07:50;3.05;;;2.15;;
325;SDS011;150;52.352;14.058;2023-05-20T01:10:24;5.40;;;2.50;;
325;SDS011;150;52.352;14.058;2023-05-20T01:12:57;5.85;;;2.30;;
325;SDS011;150;52.352;14.058;2023-05-20T01:15:27;4.70;;;2.85;;
325;SDS011;150;52.352;14.058;2023-05-20T01:17:57;5.40;;;3.33;;
325;SDS011;150;52.352;14.058;2023-05-20T01:20:27;5.20;;;3.00;;
325;SDS011;150;52.352;14.058;2023-05-20T01:22:58;5.07;;;3.58;;
325;SDS011;150;52.352;14.058;2023-05-20T01:25:28;3.53;;;2.75;;
325;SDS011;150;52.352;14.058;2023-05-20T01:27:55;5.18;;;2.80;;
325;SDS011;150;52.352;14.058;2023-05-20T01:30:22;5.25;;;2.90;;
325;SDS011;150;52.352;14.058;2023-05-20T01:32:53;3.10;;;2.35;;
325;SDS011;150;52.352;14.058;2023-05-20T01:35:24;2.75;;;2.47;;
325;SDS011;150;52.352;14.058;2023-05-20T01:37:51;5.00;;;2.80;;
325;SDS011;150;52.352;14.058;2023-05-20T01:40:20;6.00;;;2.80;;
325;SDS011;150;52.352;14.058;2023-05-20T01:42:48;4.53;;;2.80;;
325;SDS011;150;52.352;14.058;2023-05-20T01:45:17;4.23;;;2.70;;
325;SDS011;150;52.352;14.058;2023-05-20T01:47:44;5.87;;;2.70;;
325;SDS011;150;52.352;14.058;2023-05-20T01:50:10;4.30;;;2.85;;
325;SDS011;150;52.352;14.058;2023-05-20T01:52:37;3.00;;;2.70;;
325;SDS011;150;52.352;14.058;2023-05-20T01:55:04;4.82;;;2.85;;
325;SDS011;150;52.352;14.058;2023-05-20T01:57:32;4.90;;;3.30;;
325;SDS011;150;52.352;14.058;2023-05-20T01:59:59;5.13;;;3.10;;
325;SDS011;150;52.352;14.058;2023-05-20T02:02:26;4.22;;;3.05;;
325;SDS011;150;52.352;14.058;2023-05-20T02:04:53;3.90;;;2.90;;
325;SDS011;150;52.352;14.058;2023-05-20T02:07:19;3.70;;;2.70;;
325;SDS011;150;52.352;14.058;2023-05-20T02:09:49;3.70;;;2.40;;
325;SDS011;150;52.352;14.058;2023-05-20T02:12:20;8.30;;;3.05;;
325;SDS011;150;52.352;14.058;2023-05-20T02:14:48;2.80;;;2.50;;
325;SDS011;150;52.352;14.058;2023-05-20T02:17:15;5.97;;;2.75;;
325;SDS011;150;52.352;14.058;2023-05-20T02:19:42;5.53;;;3.88;;
325;SDS011;150;52.352;14.058;2023-05-20T02:22:11;4.70;;;2.70;;
325;SDS011;150;52.352;14.058;2023-05-20T02:24:38;4.38;;;2.90;;
325;SDS011;150;52.352;14.058;2023-05-20T02:27:10;6.15;;;2.85;;
325;SDS011;150;52.352;14.058;2023-05-20T02:29:42;4.97;;;2.60;;
325;SDS011;150;52.352;14.058;2023-05-20T02:32:15;7.27;;;3.03;;
325;SDS011;150;52.352;14.058;2023-05-20T02:34:44;4.72;;;3.15;;
325;SDS011;150;52.352;14.058;2023-05-20T02:37:11;3.97;;;2.70;;
325;SDS011;150;52.352;14.058;2023-05-20T02:39:37;3.92;;;2.70;;
325;SDS011;150;52.352;14.058;2023-05-20T02:42:04;4.88;;;2.90;;
325;SDS011;150;52.352;14.058;2023-05-20T02:44:31;7.07;;;3.40;;
325;SDS011;150;52.352;14.058;2023-05-20T02:46:57;3.67;;;2.80;;
325;SDS011;150;52.352;14.058;2023-05-20T02:49:25;4.35;;;2.78;;
325;SDS011;150;52.352;14.058;2023-05-20T02:51:52;4.07;;;2.85;;
325;SDS011;150;52.352;14.058;2023-05-20T02:54:18;4.38;;;2.88;;
325;SDS011;150;52.352;14.058;2023-05-20T02:56:45;4.30;;;3.03;;
325;SDS011;150;52.352;14.058;2023-05-20T02:59:12;3.20;;;2.60;;
325;SDS011;150;52.352;14.058;2023-05-20T03:01:38;5.20;;;3.03;;
325;SDS011;150;52.352;14.058;2023-05-20T03:04:05;5.35;;;3.35;;
325;SDS011;150;52.352;14.058;2023-05-20T03:06:33;3.13;;;2.70;;
325;SDS011;150;52.352;14.058;2023-05-20T03:09:05;3.35;;;2.50;;
325;SDS011;150;52.352;14.058;2023-05-20T03:11:35;3.75;;;3.28;;
325;SDS011;150;52.352;14.058;2023-05-20T03:14:02;3.63;;;2.80;;
325;SDS011;150;52.352;14.058;2023-05-20T03:16:28;6.50;;;3.40;;
325;SDS011;150;52.352;14.058;2023-05-20T03:18:55;4.03;;;2.88;;
325;SDS011;150;52.352;14.058;2023-05-20T03:21:21;5.65;;;3.30;;
325;SDS011;150;52.352;14.058;2023-05-20T03:23:50;6.25;;;3.40;;
325;SDS011;150;52.352;14.058;2023-05-20T03:26:17;4.07;;;2.92;;
325;SDS011;150;52.352;14.058;2023-05-20T03:28:47;4.40;;;3.08;;
325;SDS011;150;52.352;14.058;2023-05-20T03:31:14;6.25;;;3.25;;
325;SDS011;150;52.352;14.058;2023-05-20T03:33:41;3.33;;;2.70;;
325;SDS011;150;52.352;14.058;2023-05-20T03:36:11;4.88;;;2.90;;
325;SDS011;150;52.352;14.058;2023-05-20T03:38:47;3.72;;;3.10;;
325;SDS011;150;52.352;14.058;2023-05-20T03:41:15;4.80;;;4.00;;
325;SDS011;150;52.352;14.058;2023-05-20T03:43:41;4.53;;;2.97;;
325;SDS011;150;52.352;14.058;2023-05-20T03:46:08;4.15;;;2.97;;
325;SDS011;150;52.352;14.058;2023-05-20T03:48:35;7.88;;;3.40;;
325;SDS011;150;52.352;14.058;2023-05-20T03:51:02;4.97;;;2.97;;
325;SDS011;150;52.352;14.058;2023-05-20T03:53:28;4.90;;;3.20;;
325;SDS011;150;52.352;14.058;2023-05-20T03:55:56;4.97;;;3.17;;
325;SDS011;150;52.352;14.058;2023-05-20T03:58:24;5.82;;;3.15;;
325;SDS011;150;52.352;14.058;2023-05-20T04:00:53;4.07;;;3.17;;
325;SDS011;150;52.352;14.058;2023-05-20T04:03:19;9.07;;;4.45;;
325;SDS011;150;52.352;14.058;2023-05-20T04:05:46;4.63;;;3.40;;
325;SDS011;150;52.352;14.058;2023-05-20T04:08:16;5.10;;;3.50;;
325;SDS011;150;52.352;14.058;2023-05-20T04:10:49;5.85;;;3.92;;
325;SDS011;150;52.352;14.058;2023-05-20T04:13:26;5.00;;;3.10;;
325;SDS011;150;52.352;14.058;2023-05-20T04:15:53;4.13;;;2.88;;
325;SDS011;150;52.352;14.058;2023-05-20T04:18:24;6.70;;;3.50;;
325;SDS011;150;52.352;14.058;2023-05-20T04:20:53;6.20;;;3.90;;
325;SDS011;150;52.352;14.058;2023-05-20T04:23:21;6.93;;;3.28;;
325;SDS011;150;52.352;14.058;2023-05-20T04:25:47;5.05;;;3.60;;
325;SDS011;150;52.352;14.058;2023-05-20T04:28:16;4.90;;;3.03;;
325;SDS011;150;52.352;14.058;2023-05-20T04:30:44;8.52;;;3.67;;
325;SDS011;150;52.352;14.058;2023-05-20T04:33:14;4.20;;;3.47;;
325;SDS011;150;52.352;14.058;2023-05-20T04:35:45;4.22;;;3.63;;
325;SDS011;150;52.352;14.058;2023-05-20T04:38:17;3.80;;;3.40;;
325;SDS011;150;52.352;14.058;2023-05-20T04:40:47;4.00;;;2.90;;
325;SDS011;150;52.352;14.058;2023-05-20T04:43:19;5.90;;;3.80;;
325;SDS011;150;52.352;14.058;2023-05-20T04:45:47;7.38;;;3.53;;
325;SDS011;150;52.352;14.058;2023-05-20T04:48:14;4.30;;;2.95;;
325;SDS011;150;52.352;14.058;2023-05-20T04:50:40;7.15;;;4.28;;
325;SDS011;150;52.352;14.058;2023-05-20T04:53:07;6.20;;;3.65;;
325;SDS011;150;52.352;14.058;2023-05-20T04:55:34;5.30;;;3.65;;
325;SDS011;150;52.352;14.058;2023-05-20T04:58:03;6.93;;;4.43;;
325;SDS011;150;52.352;14.058;2023-05-20T05:00:29;4.47;;;3.15;;
325;SDS011;150;52.352;14.058;2023-05-20T05:02:57;6.97;;;4.50;;
325;SDS011;150;52.352;14.058;2023-05-20T05:05:25;4.93;;;3.42;;
325;SDS011;150;52.352;14.058;2023-05-20T05:07:51;6.03;;;4.00;;
325;SDS011;150;52.352;14.058;2023-05-20T05:10:18;4.23;;;3.20;;
325;SDS011;150;52.352;14.058;2023-05-20T05:12:50;6.18;;;3.58;;
325;SDS011;150;52.352;14.058;2023-05-20T05:15:19;5.30;;;4.22;;
325;SDS011;150;52.352;14.058;2023-05-20T05:17:46;4.80;;;3.53;;
325;SDS011;150;52.352;14.058;2023-05-20T05:20:17;7.68;;;4.05;;
325;SDS011;150;52.352;14.058;2023-05-20T05:22:48;6.90;;;3.70;;
325;SDS011;150;52.352;14.058;2023-05-20T05:25:18;5.30;;;4.03;;
325;SDS011;150;52.352;14.058;2023-05-20T05:27:45;6.93;;;3.80;;
325;SDS011;150;52.352;14.058;2023-05-20T05:30:13;7.97;;;4.47;;
325;SDS011;150;52.352;14.058;2023-05-20T05:32:40;5.22;;;3.30;;
325;SDS011;150;52.352;14.058;2023-05-20T05:35:17;6.47;;;3.80;;
325;SDS011;150;52.352;14.058;2023-05-20T05:37:51;6.40;;;4.10;;
325;SDS011;150;52.352;14.058;2023-05-20T05:40:29;8.20;;;3.92;;
325;SDS011;150;52.352;14.058;2023-05-20T05:42:56;5.78;;;4.20;;
325;SDS011;150;52.352;14.058;2023-05-20T05:45:27;4.68;;;3.22;;
325;SDS011;150;52.352;14.058;2023-05-20T05:48:00;6.47;;;3.90;;
325;SDS011;150;52.352;14.058;2023-05-20T05:50:30;9.52;;;4.00;;
325;SDS011;150;52.352;14.058;2023-05-20T05:53:00;7.32;;;4.35;;
325;SDS011;150;52.352;14.058;2023-05-20T05:55:32;6.53;;;3.95;;
325;SDS011;150;52.352;14.058;2023-05-20T05:58:04;6.00;;;4.55;;
325;SDS011;150;52.352;14.058;2023-05-20T06:00:31;6.20;;;4.28;;
325;SDS011;150;52.352;14.058;2023-05-20T06:02:58;6.20;;;4.50;;
325;SDS011;150;52.352;14.058;2023-05-20T06:05:27;6.03;;;3.83;;
325;SDS011;150;52.352;14.058;2023-05-20T06:07:57;4.55;;;3.83;;
325;SDS011;150;52.352;14.058;2023-05-20T06:10:24;5.75;;;4.40;;
325;SDS011;150;52.352;14.058;2023-05-20T06:12:54;8.32;;;3.80;;
325;SDS011;150;52.352;14.058;2023-05-20T06:15:23;6.88;;;4.40;;
325;SDS011;150;52.352;14.058;2023-05-20T06:17:55;5.30;;;3.97;;
325;SDS011;150;52.352;14.058;2023-05-20T06:20:31;4.95;;;3.90;;
325;SDS011;150;52.352;14.058;2023-05-20T06:23:04;4.90;;;3.90;;
325;SDS011;150;52.352;14.058;2023-05-20T06:25:31;5.70;;;4.07;;
325;SDS011;150;52.352;14.058;2023-05-20T06:27:58;6.28;;;4.20;;
325;SDS011;150;52.352;14.058;2023-05-20T06:30:30;7.03;;;4.80;;
325;SDS011;150;52.352;14.058;2023-05-20T06:33:04;4.80;;;3.80;;
325;SDS011;150;52.352;14.058;2023-05-20T06:35:36;8.50;;;4.22;;
325;SDS011;150;52.352;14.058;2023-05-20T06:40:55;6.53;;;4.15;;
325;SDS011;150;52.352;14.058;2023-05-20T06:43:37;6.38;;;4.30;;
325;SDS011;150;52.352;14.058;2023-05-20T06:46:34;5.82;;;4.45;;
325;SDS011;150;52.352;14.058;2023-05-20T06:49:23;7.38;;;4.05;;
325;SDS011;150;52.352;14.058;2023-05-20T06:51:58;8.18;;;4.63;;
325;SDS011;150;52.352;14.058;2023-05-20T06:54:37;7.50;;;5.22;;
325;SDS011;150;52.352;14.058;2023-05-20T07:00:16;4.72;;;4.38;;
325;SDS011;150;52.352;14.058;2023-05-20T07:03:22;7.77;;;4.40;;
325;SDS011;150;52.352;14.058;2023-05-20T07:06:40;9.80;;;4.80;;
325;SDS011;150;52.352;14.058;2023-05-20T07:09:19;6.93;;;4.25;;
325;SDS011;150;52.352;14.058;2023-05-20T07:15:14;6.15;;;4.53;;
325;SDS011;150;52.352;14.058;2023-05-20T07:17:58;6.32;;;4.50;;
325;SDS011;150;52.352;14.058;2023-05-20T07:21:10;8.55;;;5.50;;
325;SDS011;150;52.352;14.058;2023-05-20T07:23:55;5.80;;;4.55;;
325;SDS011;150;52.352;14.058;2023-05-20T07:26:22;8.38;;;5.00;;
325;SDS011;150;52.352;14.058;2023-05-20T07:28:53;7.87;;;5.30;;
325;SDS011;150;52.352;14.058;2023-05-20T07:31:23;6.70;;;4.70;;
325;SDS011;150;52.352;14.058;2023-05-20T07:34:16;7.35;;;5.18;;
325;SDS011;150;52.352;14.058;2023-05-20T07:36:48;6.65;;;4.47;;
325;SDS011;150;52.352;14.058;2023-05-20T07:39:18;6.70;;;4.82;;
325;SDS011;150;52.352;14.058;2023-05-20T07:41:51;8.18;;;4.82;;
325;SDS011;150;52.352;14.058;2023-05-20T07:44:19;6.53;;;5.22;;
325;SDS011;150;52.352;14.058;2023-05-20T07:46:54;6.50;;;4.50;;
325;SDS011;150;52.352;14.058;2023-05-20T07:49:23;7.00;;;4.80;;
325;SDS011;150;52.352;14.058;2023-05-20T07:51:50;6.20;;;5.55;;
325;SDS011;150;52.352;14.058;2023-05-20T07:54:17;11.40;;;7.60;;
325;SDS011;150;52.352;14.058;2023-05-20T07:56:44;12.17;;;8.17;;
325;SDS011;150;52.352;14.058;2023-05-20T07:59:10;10.90;;;6.60;;
325;SDS011;150;52.352;14.058;2023-05-20T08:01:50;7.93;;;6.30;;
325;SDS011;150;52.352;14.058;2023-05-20T08:04:27;9.15;;;5.90;;
325;SDS011;150;52.352;14.058;2023-05-20T08:06:53;14.83;;;6.30;;
325;SDS011;150;52.352;14.058;2023-05-20T08:09:20;8.13;;;5.60;;
325;SDS011;150;52.352;14.058;2023-05-20T08:11:47;10.87;;;8.70;;
325;SDS011;150;52.352;14.058;2023-05-20T08:14:20;14.40;;;8.50;;
325;SDS011;150;52.352;14.058;2023-05-20T08:16:46;9.68;;;6.85;;
325;SDS011;150;52.352;14.058;2023-05-20T08:19:19;9.93;;;6.25;;
325;SDS011;150;52.352;14.058;2023-05-20T08:21:55;8.52;;;6.38;;
325;SDS011;150;52.352;14.058;2023-05-20T08:24:22;14.48;;;7.53;;
325;SDS011;150;52.352;14.058;2023-05-20T08:26:48;7.75;;;6.53;;
325;SDS011;150;52.352;14.058;2023-05-20T08:29:21;12.60;;;9.80;;
325;SDS011;150;52.352;14.058;2023-05-20T08:34:37;7.75;;;6.00;;
325;SDS011;150;52.352;14.058;2023-05-20T08:37:04;32.53;;;9.98;;
325;SDS011;150;52.352;14.058;2023-05-20T08:39:40;10.13;;;6.40;;
325;SDS011;150;52.352;14.058;2023-05-20T08:42:09;8.07;;;6.38;;
325;SDS011;150;52.352;14.058;2023-05-20T08:44:39;8.95;;;6.40;;
325;SDS011;150;52.352;14.058;2023-05-20T09:16:06;6.78;;;5.75;;
325;SDS011;150;52.352;14.058;2023-05-20T09:19:55;7.67;;;5.97;;
325;SDS011;150;52.352;14.058;2023-05-20T09:22:01;10.73;;;6.82;;
325;SDS011;150;52.352;14.058;2023-05-20T09:24:35;10.00;;;6.20;;
325;SDS011;150;52.352;14.058;2023-05-20T09:27:04;11.57;;;7.38;;
325;SDS011;150;52.352;14.058;2023-05-20T09:29:50;11.95;;;7.45;;
325;SDS011;150;52.352;14.058;2023-05-20T09:32:17;12.60;;;7.30;;
325;SDS011;150;52.352;14.058;2023-05-20T09:34:48;12.82;;;7.78;;
325;SDS011;150;52.352;14.058;2023-05-20T09:37:19;8.65;;;6.93;;
325;SDS011;150;52.352;14.058;2023-05-20T09:39:49;9.80;;;6.22;;
325;SDS011;150;52.352;14.058;2023-05-20T09:42:22;8.10;;;5.53;;
325;SDS011;150;52.352;14.058;2023-05-20T09:44:56;8.38;;;5.97;;
325;SDS011;150;52.352;14.058;2023-05-20T09:47:39;8.95;;;7.10;;
325;SDS011;150;52.352;14.058;2023-05-20T09:50:09;9.98;;;7.25;;
325;SDS011;150;52.352;14.058;2023-05-20T09:52:47;8.93;;;5.80;;
325;SDS011;150;52.352;14.058;2023-05-20T09:55:19;10.75;;;6.70;;
325;SDS011;150;52.352;14.058;2023-05-20T09:57:50;10.05;;;6.13;;
325;SDS011;150;52.352;14.058;2023-05-20T10:00:21;8.48;;;6.18;;
325;SDS011;150;52.352;14.058;2023-05-20T10:02:51;11.68;;;8.00;;
325;SDS011;150;52.352;14.058;2023-05-20T10:05:20;11.52;;;7.80;;
325;SDS011;150;52.352;14.058;2023-05-20T10:10:55;7.60;;;5.35;;
325;SDS011;150;52.352;14.058;2023-05-20T10:13:36;8.18;;;5.43;;
325;SDS011;150;52.352;14.058;2023-05-20T10:16:13;11.38;;;6.43;;
325;SDS011;150;52.352;14.058;2023-05-20T10:18:49;8.00;;;6.20;;
325;SDS011;150;52.352;14.058;2023-05-20T10:21:23;9.47;;;5.90;;
325;SDS011;150;52.352;14.058;2023-05-20T10:24:04;8.65;;;5.57;;
325;SDS011;150;52.352;14.058;2023-05-20T10:26:33;9.85;;;7.35;;
325;SDS011;150;52.352;14.058;2023-05-20T10:29:00;7.10;;;6.35;;
325;SDS011;150;52.352;14.058;2023-05-20T10:31:51;9.65;;;6.22;;
325;SDS011;150;52.352;14.058;2023-05-20T10:34:25;15.25;;;7.43;;
325;SDS011;150;52.352;14.058;2023-05-20T10:37:30;10.10;;;6.63;;
325;SDS011;150;52.352;14.058;2023-05-20T10:40:06;6.95;;;5.40;;
325;SDS011;150;52.352;14.058;2023-05-20T10:42:36;8.70;;;6.20;;
325;SDS011;150;52.352;14.058;2023-05-20T10:45:06;7.85;;;5.85;;
325;SDS011;150;52.352;14.058;2023-05-20T10:47:54;9.67;;;7.40;;
325;SDS011;150;52.352;14.058;2023-05-20T10:50:32;8.90;;;7.10;;
325;SDS011;150;52.352;14.058;2023-05-20T10:53:16;10.68;;;7.85;;
325;SDS011;150;52.352;14.058;2023-05-20T10:55:48;9.88;;;6.85;;
325;SDS011;150;52.352;14.058;2023-05-20T10:58:19;12.50;;;6.40;;
325;SDS011;150;52.352;14.058;2023-05-20T11:00:47;8.25;;;5.90;;
325;SDS011;150;52.352;14.058;2023-05-20T11:03:15;9.85;;;6.50;;
325;SDS011;150;52.352;14.058;2023-05-20T11:05:45;8.23;;;6.25;;
325;SDS011;150;52.352;14.058;2023-05-20T11:08:20;9.57;;;5.93;;
325;SDS011;150;52.352;14.058;2023-05-20T11:10:58;11.65;;;9.45;;
325;SDS011;150;52.352;14.058;2023-05-20T11:13:39;13.05;;;9.60;;
325;SDS011;150;52.352;14.058;2023-05-20T11:16:06;10.30;;;7.00;;
325;SDS011;150;52.352;14.058;2023-05-20T11:18:35;8.70;;;5.63;;
325;SDS011;150;52.352;14.058;2023-05-20T11:21:01;31.80;;;22.77;;
325;SDS011;150;52.352;14.058;2023-05-20T11:23:28;10.32;;;6.60;;
325;SDS011;150;52.352;14.058;2023-05-20T11:25:56;12.02;;;7.97;;
325;SDS011;150;52.352;14.058;2023-05-20T11:28:24;8.50;;;6.10;;
325;SDS011;150;52.352;14.058;2023-05-20T11:30:51;8.65;;;6.45;;
325;SDS011;150;52.352;14.058;2023-05-20T11:33:18;10.15;;;7.47;;
325;SDS011;150;52.352;14.058;2023-05-20T11:35:46;7.38;;;6.15;;
325;SDS011;150;52.352;14.058;2023-05-20T11:38:13;10.70;;;7.00;;
325;SDS011;150;52.352;14.058;2023-05-20T11:40:44;11.45;;;7.18;;
325;SDS011;150;52.352;14.058;2023-05-20T11:43:13;8.30;;;5.60;;
325;SDS011;150;52.352;14.058;2023-05-20T11:45:40;8.05;;;5.82;;
325;SDS011;150;52.352;14.058;2023-05-20T11:48:07;8.23;;;5.78;;
325;SDS011;150;52.352;14.058;2023-05-20T11:50:35;8.68;;;6.28;;
325;SDS011;150;52.352;14.058;2023-05-20T11:53:05;7.50;;;6.10;;
325;SDS011;150;52.352;14.058;2023-05-20T11:55:32;7.38;;;6.18;;
325;SDS011;150;52.352;14.058;2023-05-20T11:58:00;9.10;;;6.88;;
325;SDS011;150;52.352;14.058;2023-05-20T12:00:32;9.40;;;6.90;;
325;SDS011;150;52.352;14.058;2023-05-20T12:02:58;9.20;;;6.82;;
325;SDS011;150;52.352;14.058;2023-05-20T12:05:25;9.48;;;6.90;;
325;SDS011;150;52.352;14.058;2023-05-20T12:07:52;9.73;;;6.03;;
325;SDS011;150;52.352;14.058;2023-05-20T12:10:18;10.43;;;6.70;;
325;SDS011;150;52.352;14.058;2023-05-20T12:12:45;7.82;;;6.80;;
325;SDS011;150;52.352;14.058;2023-05-20T12:15:12;9.27;;;6.55;;
325;SDS011;150;52.352;14.058;2023-05-20T12:17:46;8.93;;;6.70;;
325;SDS011;150;52.352;14.058;2023-05-20T12:20:16;7.82;;;6.22;;
325;SDS011;150;52.352;14.058;2023-05-20T12:22:43;9.38;;;6.53;;
325;SDS011;150;52.352;14.058;2023-05-20T12:25:11;8.88;;;6.50;;
325;SDS011;150;52.352;14.058;2023-05-20T12:27:39;10.07;;;6.10;;
325;SDS011;150;52.352;14.058;2023-05-20T12:30:06;8.18;;;6.22;;
325;SDS011;150;52.352;14.058;2023-05-20T12:32:34;7.82;;;6.10;;
325;SDS011;150;52.352;14.058;2023-05-20T12:35:02;8.70;;;5.93;;
325;SDS011;150;52.352;14.058;2023-05-20T12:37:50;10.48;;;6.20;;
325;SDS011;150;52.352;14.058;2023-05-20T12:40:17;8.10;;;5.90;;
325;SDS011;150;52.352;14.058;2023-05-20T12:42:43;13.35;;;8.02;;
325;SDS011;150;52.352;14.058;2023-05-20T12:45:13;9.48;;;6.60;;
325;SDS011;150;52.352;14.058;2023-05-20T12:47:40;9.70;;;6.20;;
325;SDS011;150;52.352;14.058;2023-05-20T12:50:17;10.68;;;6.03;;
325;SDS011;150;52.352;14.058;2023-05-20T12:52:44;10.02;;;6.50;;
325;SDS011;150;52.352;14.058;2023-05-20T12:55:10;8.40;;;5.60;;
325;SDS011;150;52.352;14.058;2023-05-20T12:57:38;11.47;;;7.33;;
325;SDS011;150;52.352;14.058;2023-05-20T13:00:08;7.13;;;5.93;;
325;SDS011;150;52.352;14.058;2023-05-20T13:02:35;9.43;;;5.60;;
325;SDS011;150;52.352;14.058;2023-05-20T13:05:03;9.88;;;6.70;;
325;SDS011;150;52.352;14.058;2023-05-20T13:07:31;9.87;;;7.20;;
325;SDS011;150;52.352;14.058;2023-05-20T13:09:58;11.68;;;7.45;;
325;SDS011;150;52.352;14.058;2023-05-20T13:12:29;7.78;;;6.18;;
325;SDS011;150;52.352;14.058;2023-05-20T13:14:56;6.68;;;5.78;;
325;SDS011;150;52.352;14.058;2023-05-20T13:17:25;7.50;;;5.70;;
325;SDS011;150;52.352;14.058;2023-05-20T13:19:57;9.05;;;7.13;;
325;SDS011;150;52.352;14.058;2023-05-20T13:22:27;11.45;;;6.50;;
325;SDS011;150;52.352;14.058;2023-05-20T13:24:57;8.33;;;5.17;;
325;SDS011;150;52.352;14.058;2023-05-20T13:27:27;7.70;;;5.90;;
325;SDS011;150;52.352;14.058;2023-05-20T13:29:54;14.30;;;7.80;;
325;SDS011;150;52.352;14.058;2023-05-20T13:32:21;8.30;;;6.15;;
325;SDS011;150;52.352;14.058;2023-05-20T13:34:48;13.30;;;11.30;;
325;SDS011;150;52.352;14.058;2023-05-20T13:37:16;6.63;;;5.57;;
325;SDS011;150;52.352;14.058;2023-05-20T13:39:42;6.63;;;5.60;;
325;SDS011;150;52.352;14.058;2023-05-20T13:42:13;7.55;;;6.00;;
325;SDS011;150;52.352;14.058;2023-05-20T13:44:40;9.38;;;6.80;;
325;SDS011;150;52.352;14.058;2023-05-20T13:47:10;8.55;;;6.93;;
325;SDS011;150;52.352;14.058;2023-05-20T13:49:37;7.32;;;5.80;;
325;SDS011;150;52.352;14.058;2023-05-20T13:52:04;7.25;;;6.18;;
325;SDS011;150;52.352;14.058;2023-05-20T13:54:34;8.95;;;6.60;;
325;SDS011;150;52.352;14.058;2023-05-20T13:57:04;7.32;;;5.85;;
325;SDS011;150;52.352;14.058;2023-05-20T13:59:39;7.65;;;5.68;;
325;SDS011;150;52.352;14.058;2023-05-20T14:02:06;8.15;;;6.55;;
325;SDS011;150;52.352;14.058;2023-05-20T14:04:37;7.07;;;6.25;;
325;SDS011;150;52.352;14.058;2023-05-20T14:07:05;7.00;;;6.30;;
325;SDS011;150;52.352;14.058;2023-05-20T14:09:34;9.05;;;6.10;;
325;SDS011;150;52.352;14.058;2023-05-20T14:12:01;6.63;;;5.80;;
325;SDS011;150;52.352;14.058;2023-05-20T14:14:27;8.77;;;5.30;;
325;SDS011;150;52.352;14.058;2023-05-20T14:16:55;6.38;;;5.60;;
325;SDS011;150;52.352;14.058;2023-05-20T14:19:25;9.10;;;5.57;;
325;SDS011;150;52.352;14.058;2023-05-20T14:21:52;8.15;;;5.70;;
325;SDS011;150;52.352;14.058;2023-05-20T14:24:22;6.78;;;5.55;;
325;SDS011;150;52.352;14.058;2023-05-20T14:26:57;6.88;;;5.50;;
325;SDS011;150;52.352;14.058;2023-05-20T14:29:23;6.68;;;6.10;;
325;SDS011;150;52.352;14.058;2023-05-20T14:31:50;6.50;;;6.10;;
325;SDS011;150;52.352;14.058;2023-05-20T14:34:18;8.43;;;6.32;;
325;SDS011;150;52.352;14.058;2023-05-20T14:36:46;7.78;;;5.47;;
325;SDS011;150;52.352;14.058;2023-05-20T14:39:12;6.90;;;5.25;;
325;SDS011;150;52.352;14.058;2023-05-20T14:41:39;6.57;;;5.18;;
325;SDS011;150;52.352;14.058;2023-05-20T14:44:05;8.20;;;5.20;;
325;SDS011;150;52.352;14.058;2023-05-20T14:46:32;6.50;;;6.00;;
325;SDS011;150;52.352;14.058;2023-05-20T14:48:59;10.15;;;5.97;;
325;SDS011;150;52.352;14.058;2023-05-20T14:51:27;11.88;;;5.80;;
325;SDS011;150;52.352;14.058;2023-05-20T14:53:53;9.87;;;6.10;;
325;SDS011;150;52.352;14.058;2023-05-20T14:56:20;10.25;;;7.18;;
325;SDS011;150;52.352;14.058;2023-05-20T14:58:47;7.07;;;5.73;;
325;SDS011;150;52.352;14.058;2023-05-20T15:01:13;5.90;;;5.60;;
325;SDS011;150;52.352;14.058;2023-05-20T15:03:40;10.02;;;7.40;;
325;SDS011;150;52.352;14.058;2023-05-20T15:06:06;12.43;;;8.63;;
325;SDS011;150;52.352;14.058;2023-05-20T15:08:34;6.63;;;5.78;;
325;SDS011;150;52.352;14.058;2023-05-20T15:11:01;15.55;;;7.32;;
325;SDS011;150;52.352;14.058;2023-05-20T15:13:28;8.88;;;7.50;;
325;SDS011;150;52.352;14.058;2023-05-20T15:15:55;7.70;;;6.83;;
325;SDS011;150;52.352;14.058;2023-05-20T15:18:25;7.15;;;6.55;;
325;SDS011;150;52.352;14.058;2023-05-20T15:20:51;8.60;;;7.13;;
325;SDS011;150;52.352;14.058;2023-05-20T15:23:18;9.00;;;6.32;;
325;SDS011;150;52.352;14.058;2023-05-20T15:25:46;9.70;;;7.68;;
325;SDS011;150;52.352;14.058;2023-05-20T15:28:14;8.50;;;6.20;;
325;SDS011;150;52.352;14.058;2023-05-20T15:30:43;9.25;;;6.32;;
325;SDS011;150;52.352;14.058;2023-05-20T15:33:10;8.10;;;6.40;;
325;SDS011;150;52.352;14.058;2023-05-20T15:35:37;8.90;;;7.00;;
325;SDS011;150;52.352;14.058;2023-05-20T15:38:03;6.53;;;6.10;;
325;SDS011;150;52.352;14.058;2023-05-20T15:40:32;10.45;;;6.63;;
325;SDS011;150;52.352;14.058;2023-05-20T15:43:00;7.50;;;6.68;;
325;SDS011;150;52.352;14.058;2023-05-20T15:45:30;9.90;;;7.20;;
325;SDS011;150;52.352;14.058;2023-05-20T15:47:57;7.72;;;5.82;;
325;SDS011;150;52.352;14.058;2023-05-20T15:50:24;11.25;;;9.77;;
325;SDS011;150;52.352;14.058;2023-05-20T15:52:52;11.50;;;9.53;;
325;SDS011;150;52.352;14.058;2023-05-20T15:55:19;10.32;;;7.15;;
325;SDS011;150;52.352;14.058;2023-05-20T15:57:47;9.90;;;5.83;;
325;SDS011;150;52.352;14.058;2023-05-20T16:00:16;6.78;;;5.32;;
325;SDS011;150;52.352;14.058;2023-05-20T16:02:44;8.85;;;5.95;;
325;SDS011;150;52.352;14.058;2023-05-20T16:05:11;7.25;;;6.20;;
325;SDS011;150;52.352;14.058;2023-05-20T16:07:37;6.80;;;5.57;;
325;SDS011;150;52.352;14.058;2023-05-20T16:10:05;8.38;;;6.22;;
325;SDS011;150;52.352;14.058;2023-05-20T16:12:32;9.20;;;6.60;;
325;SDS011;150;52.352;14.058;2023-05-20T16:14:59;8.67;;;6.47;;
325;SDS011;150;52.352;14.058;2023-05-20T16:17:27;9.27;;;5.88;;
325;SDS011;150;52.352;14.058;2023-05-20T16:19:54;7.37;;;6.80;;
325;SDS011;150;52.352;14.058;2023-05-20T16:22:21;8.48;;;6.13;;
325;SDS011;150;52.352;14.058;2023-05-20T16:24:47;7.78;;;5.90;;
325;SDS011;150;52.352;14.058;2023-05-20T16:27:14;7.15;;;6.53;;
325;SDS011;150;52.352;14.058;2023-05-20T16:29:41;9.52;;;6.35;;
325;SDS011;150;52.352;14.058;2023-05-20T16:32:09;13.67;;;6.80;;